sensor_id;sensor_type;location;lat;lon;timestamp;temperature;humidity
34145;HTU21D;69555;53.014;8.886;2023-12-22T00:01:08;5.09;92.45
34145;HTU21D;69555;53.014;8.886;2023-12-22T00:03:35;5.09;91.76
34145;HTU21D;69555;53.014;8.886;2023-12-22T00:06:01;5.03;93.54
34145;HTU21D;69555;53.014;8.886;2023-12-22T00:08:28;5.06;92.21
34145;HTU21D;69555;53.014;8.886;2023-12-22T00:10:54;5.06;91.59
34145;HTU21D;69555;53.014;8.886;2023-12-22T00:13:21;5.02;92.04
34145;HTU21D;69555;53.014;8.886;2023-12-22T00:15:48;4.96;92.48
34145;HTU21D;69555;53.014;8.886;2023-12-22T00:18:14;4.92;92.63
34145;HTU21D;69555;53.014;8.886;2023-12-22T00:20:41;4.88;92.62
34145;HTU21D;69555;53.014;8.886;2023-12-22T00:23:08;4.93;91.56
34145;HTU21D;69555;53.014;8.886;2023-12-22T00:25:34;4.95;90.24
34145;HTU21D;69555;53.014;8.886;2023-12-22T00:28:01;4.91;90.63
34145;HTU21D;69555;53.014;8.886;2023-12-22T00:30:27;4.91;90.65
34145;HTU21D;69555;53.014;8.886;2023-12-22T00:32:54;4.83;90.28
34145;HTU21D;69555;53.014;8.886;2023-12-22T00:35:21;4.82;88.99
34145;HTU21D;69555;53.014;8.886;2023-12-22T00:37:48;4.73;89.12
34145;HTU21D;69555;53.014;8.886;2023-12-22T00:40:15;4.73;88.71
34145;HTU21D;69555;53.014;8.886;2023-12-22T00:42:40;4.73;88.73
34145;HTU21D;69555;53.014;8.886;2023-12-22T00:45:07;4.71;88.86
34145;HTU21D;69555;53.014;8.886;2023-12-22T00:47:33;4.62;90.30
34145;HTU21D;69555;53.014;8.886;2023-12-22T00:50:04;4.59;90.87
34145;HTU21D;69555;53.014;8.886;2023-12-22T00:52:32;4.49;92.09
34145;HTU21D;69555;53.014;8.886;2023-12-22T00:54:59;4.43;92.82
34145;HTU21D;69555;53.014;8.886;2023-12-22T00:57:25;4.41;92.62
34145;HTU21D;69555;53.014;8.886;2023-12-22T00:59:52;4.42;93.01
34145;HTU21D;69555;53.014;8.886;2023-12-22T01:02:19;4.52;92.33
34145;HTU21D;69555;53.014;8.886;2023-12-22T01:04:46;4.50;93.75
34145;HTU21D;69555;53.014;8.886;2023-12-22T01:07:13;4.42;95.58
34145;HTU21D;69555;53.014;8.886;2023-12-22T01:09:40;4.41;95.99
34145;HTU21D;69555;53.014;8.886;2023-12-22T01:12:07;4.32;96.97
34145;HTU21D;69555;53.014;8.886;2023-12-22T01:14:34;4.23;96.52
34145;HTU21D;69555;53.014;8.886;2023-12-22T01:17:01;4.20;97.09
34145;HTU21D;69555;53.014;8.886;2023-12-22T01:19:27;4.10;99.00
34145;HTU21D;69555;53.014;8.886;2023-12-22T01:21:54;4.04;100.34
34145;HTU21D;69555;53.014;8.886;2023-12-22T01:24:20;3.88;101.03
34145;HTU21D;69555;53.014;8.886;2023-12-22T01:26:47;3.82;101.84
34145;HTU21D;69555;53.014;8.886;2023-12-22T01:29:13;3.82;102.18
34145;HTU21D;69555;53.014;8.886;2023-12-22T01:31:40;3.85;101.16
34145;HTU21D;69555;53.014;8.886;2023-12-22T01:34:07;3.92;101.50
34145;HTU21D;69555;53.014;8.886;2023-12-22T01:36:34;4.03;100.77
34145;HTU21D;69555;53.014;8.886;2023-12-22T01:39:01;4.10;99.48
34145;HTU21D;69555;53.014;8.886;2023-12-22T01:41:28;4.17;99.42
34145;HTU21D;69555;53.014;8.886;2023-12-22T01:43:54;4.18;98.40
34145;HTU21D;69555;53.014;8.886;2023-12-22T01:46:21;4.13;99.61
34145;HTU21D;69555;53.014;8.886;2023-12-22T01:48:48;4.14;100.04
34145;HTU21D;69555;53.014;8.886;2023-12-22T01:51:16;4.19;98.09
34145;HTU21D;69555;53.014;8.886;2023-12-22T01:53:44;4.24;97.74
34145;HTU21D;69555;53.014;8.886;2023-12-22T01:56:12;4.29;97.15
34145;HTU21D;69555;53.014;8.886;2023-12-22T01:58:39;4.29;97.30
34145;HTU21D;69555;53.014;8.886;2023-12-22T02:01:07;4.37;95.98
34145;HTU21D;69555;53.014;8.886;2023-12-22T02:03:34;4.41;96.27
34145;HTU21D;69555;53.014;8.886;2023-12-22T02:06:01;4.41;94.96
34145;HTU21D;69555;53.014;8.886;2023-12-22T02:08:31;4.33;97.13
34145;HTU21D;69555;53.014;8.886;2023-12-22T02:10:58;4.29;96.25
34145;HTU21D;69555;53.014;8.886;2023-12-22T02:13:25;4.17;95.18
34145;HTU21D;69555;53.014;8.886;2023-12-22T02:16:11;4.08;93.82
34145;HTU21D;69555;53.014;8.886;2023-12-22T02:18:42;4.01;94.50
34145;HTU21D;69555;53.014;8.886;2023-12-22T02:21:10;4.03;93.58
34145;HTU21D;69555;53.014;8.886;2023-12-22T02:23:37;3.92;94.54
34145;HTU21D;69555;53.014;8.886;2023-12-22T02:26:09;3.97;95.96
34145;HTU21D;69555;53.014;8.886;2023-12-22T02:28:37;3.78;98.45
34145;HTU21D;69555;53.014;8.886;2023-12-22T02:31:42;3.71;100.70
34145;HTU21D;69555;53.014;8.886;2023-12-22T02:34:13;3.69;102.38
34145;HTU21D;69555;53.014;8.886;2023-12-22T02:36:45;3.62;103.44
34145;HTU21D;69555;53.014;8.886;2023-12-22T02:39:12;3.68;103.78
34145;HTU21D;69555;53.014;8.886;2023-12-22T02:41:41;3.70;101.99
34145;HTU21D;69555;53.014;8.886;2023-12-22T02:44:08;3.74;101.82
34145;HTU21D;69555;53.014;8.886;2023-12-22T02:46:35;3.70;102.83
34145;HTU21D;69555;53.014;8.886;2023-12-22T02:49:01;3.73;102.87
34145;HTU21D;69555;53.014;8.886;2023-12-22T02:51:28;3.71;103.18
34145;HTU21D;69555;53.014;8.886;2023-12-22T02:53:59;3.71;102.73
34145;HTU21D;69555;53.014;8.886;2023-12-22T02:56:25;3.71;102.35
34145;HTU21D;69555;53.014;8.886;2023-12-22T02:58:52;3.75;102.25
34145;HTU21D;69555;53.014;8.886;2023-12-22T03:01:18;3.79;101.70
34145;HTU21D;69555;53.014;8.886;2023-12-22T03:03:45;3.83;101.13
34145;HTU21D;69555;53.014;8.886;2023-12-22T03:06:11;3.75;101.20
34145;HTU21D;69555;53.014;8.886;2023-12-22T03:08:38;3.71;100.73
34145;HTU21D;69555;53.014;8.886;2023-12-22T03:11:04;3.74;99.97
34145;HTU21D;69555;53.014;8.886;2023-12-22T03:13:31;3.58;100.56
34145;HTU21D;69555;53.014;8.886;2023-12-22T03:15:56;3.58;99.73
34145;HTU21D;69555;53.014;8.886;2023-12-22T03:18:23;3.69;98.03
34145;HTU21D;69555;53.014;8.886;2023-12-22T03:20:49;3.73;98.28
34145;HTU21D;69555;53.014;8.886;2023-12-22T03:23:16;3.83;96.62
34145;HTU21D;69555;53.014;8.886;2023-12-22T03:25:43;3.93;96.51
34145;HTU21D;69555;53.014;8.886;2023-12-22T03:28:10;3.95;96.61
34145;HTU21D;69555;53.014;8.886;2023-12-22T03:30:36;3.99;96.04
34145;HTU21D;69555;53.014;8.886;2023-12-22T03:33:04;4.03;96.31
34145;HTU21D;69555;53.014;8.886;2023-12-22T03:35:30;4.12;94.85
34145;HTU21D;69555;53.014;8.886;2023-12-22T03:37:57;4.20;94.11
34145;HTU21D;69555;53.014;8.886;2023-12-22T03:40:23;4.20;96.13
34145;HTU21D;69555;53.014;8.886;2023-12-22T03:42:50;4.16;96.94
34145;HTU21D;69555;53.014;8.886;2023-12-22T03:45:16;4.04;98.54
34145;HTU21D;69555;53.014;8.886;2023-12-22T03:47:43;3.86;98.62
34145;HTU21D;69555;53.014;8.886;2023-12-22T03:50:10;3.80;98.61
34145;HTU21D;69555;53.014;8.886;2023-12-22T03:52:37;3.79;98.10
34145;HTU21D;69555;53.014;8.886;2023-12-22T03:55:04;3.78;97.46
34145;HTU21D;69555;53.014;8.886;2023-12-22T03:57:31;3.79;97.21
34145;HTU21D;69555;53.014;8.886;2023-12-22T03:59:58;3.72;97.49
34145;HTU21D;69555;53.014;8.886;2023-12-22T04:02:24;3.65;98.08
34145;HTU21D;69555;53.014;8.886;2023-12-22T04:04:51;3.59;97.81
34145;HTU21D;69555;53.014;8.886;2023-12-22T04:07:17;3.78;95.27
34145;HTU21D;69555;53.014;8.886;2023-12-22T04:09:44;3.90;93.70
34145;HTU21D;69555;53.014;8.886;2023-12-22T04:12:11;3.94;93.94
34145;HTU21D;69555;53.014;8.886;2023-12-22T04:14:38;3.98;92.89
34145;HTU21D;69555;53.014;8.886;2023-12-22T04:17:04;3.95;93.81
34145;HTU21D;69555;53.014;8.886;2023-12-22T04:19:30;4.04;93.07
34145;HTU21D;69555;53.014;8.886;2023-12-22T04:21:57;4.09;93.68
34145;HTU21D;69555;53.014;8.886;2023-12-22T04:24:24;4.10;93.36
34145;HTU21D;69555;53.014;8.886;2023-12-22T04:26:51;4.16;93.11
34145;HTU21D;69555;53.014;8.886;2023-12-22T04:29:17;4.22;93.85
34145;HTU21D;69555;53.014;8.886;2023-12-22T04:31:44;4.19;94.80
34145;HTU21D;69555;53.014;8.886;2023-12-22T04:34:14;4.31;94.61
34145;HTU21D;69555;53.014;8.886;2023-12-22T04:36:42;4.24;95.78
34145;HTU21D;69555;53.014;8.886;2023-12-22T04:39:09;4.31;96.86
34145;HTU21D;69555;53.014;8.886;2023-12-22T04:41:36;4.07;98.71
34145;HTU21D;69555;53.014;8.886;2023-12-22T04:44:02;4.06;98.09
34145;HTU21D;69555;53.014;8.886;2023-12-22T04:46:30;3.90;99.64
34145;HTU21D;69555;53.014;8.886;2023-12-22T04:48:56;3.89;100.61
34145;HTU21D;69555;53.014;8.886;2023-12-22T04:51:24;3.93;101.09
34145;HTU21D;69555;53.014;8.886;2023-12-22T04:53:50;3.95;100.38
34145;HTU21D;69555;53.014;8.886;2023-12-22T04:56:17;4.00;98.71
34145;HTU21D;69555;53.014;8.886;2023-12-22T04:58:43;3.90;99.75
34145;HTU21D;69555;53.014;8.886;2023-12-22T05:01:10;3.93;99.26
34145;HTU21D;69555;53.014;8.886;2023-12-22T05:03:37;3.98;98.54
34145;HTU21D;69555;53.014;8.886;2023-12-22T05:06:03;3.95;98.29
34145;HTU21D;69555;53.014;8.886;2023-12-22T05:08:30;4.01;97.49
34145;HTU21D;69555;53.014;8.886;2023-12-22T05:10:57;3.94;98.21
34145;HTU21D;69555;53.014;8.886;2023-12-22T05:13:24;4.09;97.81
34145;HTU21D;69555;53.014;8.886;2023-12-22T05:15:51;4.33;94.88
34145;HTU21D;69555;53.014;8.886;2023-12-22T05:18:18;4.37;92.79
34145;HTU21D;69555;53.014;8.886;2023-12-22T05:20:44;4.46;89.76
34145;HTU21D;69555;53.014;8.886;2023-12-22T05:23:11;4.48;91.18
34145;HTU21D;69555;53.014;8.886;2023-12-22T05:25:38;4.48;90.71
34145;HTU21D;69555;53.014;8.886;2023-12-22T05:28:05;4.46;90.87
34145;HTU21D;69555;53.014;8.886;2023-12-22T05:30:31;4.35;92.05
34145;HTU21D;69555;53.014;8.886;2023-12-22T05:32:58;4.41;91.61
34145;HTU21D;69555;53.014;8.886;2023-12-22T05:35:24;4.42;89.63
34145;HTU21D;69555;53.014;8.886;2023-12-22T05:37:51;4.46;90.20
34145;HTU21D;69555;53.014;8.886;2023-12-22T05:40:17;4.26;92.59
34145;HTU21D;69555;53.014;8.886;2023-12-22T05:42:44;4.24;92.04
34145;HTU21D;69555;53.014;8.886;2023-12-22T05:45:10;4.26;92.35
34145;HTU21D;69555;53.014;8.886;2023-12-22T05:47:37;4.13;93.09
34145;HTU21D;69555;53.014;8.886;2023-12-22T05:50:04;4.24;91.97
34145;HTU21D;69555;53.014;8.886;2023-12-22T05:52:31;4.10;92.85
34145;HTU21D;69555;53.014;8.886;2023-12-22T05:54:57;4.16;92.46
34145;HTU21D;69555;53.014;8.886;2023-12-22T05:57:25;4.14;91.02
34145;HTU21D;69555;53.014;8.886;2023-12-22T05:59:52;4.09;91.72
34145;HTU21D;69555;53.014;8.886;2023-12-22T06:02:18;4.00;91.70
34145;HTU21D;69555;53.014;8.886;2023-12-22T06:04:44;4.02;90.82
34145;HTU21D;69555;53.014;8.886;2023-12-22T06:07:16;4.02;89.85
34145;HTU21D;69555;53.014;8.886;2023-12-22T06:09:42;4.02;90.61
34145;HTU21D;69555;53.014;8.886;2023-12-22T06:12:10;3.99;91.36
34145;HTU21D;69555;53.014;8.886;2023-12-22T06:14:36;4.16;90.28
34145;HTU21D;69555;53.014;8.886;2023-12-22T06:17:03;4.29;90.57
34145;HTU21D;69555;53.014;8.886;2023-12-22T06:19:29;4.22;93.46
34145;HTU21D;69555;53.014;8.886;2023-12-22T06:21:56;4.03;95.75
34145;HTU21D;69555;53.014;8.886;2023-12-22T06:24:27;3.88;98.71
34145;HTU21D;69555;53.014;8.886;2023-12-22T06:26:54;3.63;99.55
34145;HTU21D;69555;53.014;8.886;2023-12-22T06:29:20;3.55;101.42
34145;HTU21D;69555;53.014;8.886;2023-12-22T06:31:47;3.44;101.88
34145;HTU21D;69555;53.014;8.886;2023-12-22T06:34:17;3.39;102.76
34145;HTU21D;69555;53.014;8.886;2023-12-22T06:36:43;3.34;103.66
34145;HTU21D;69555;53.014;8.886;2023-12-22T06:39:10;3.41;103.89
34145;HTU21D;69555;53.014;8.886;2023-12-22T06:41:37;3.42;103.33
34145;HTU21D;69555;53.014;8.886;2023-12-22T06:44:04;3.48;103.37
34145;HTU21D;69555;53.014;8.886;2023-12-22T06:46:31;3.47;103.94
34145;HTU21D;69555;53.014;8.886;2023-12-22T06:48:58;3.46;103.48
34145;HTU21D;69555;53.014;8.886;2023-12-22T06:51:28;3.38;103.86
34145;HTU21D;69555;53.014;8.886;2023-12-22T06:53:57;3.38;104.12
34145;HTU21D;69555;53.014;8.886;2023-12-22T06:56:33;3.34;104.14
34145;HTU21D;69555;53.014;8.886;2023-12-22T06:59:00;3.31;105.16
34145;HTU21D;69555;53.014;8.886;2023-12-22T07:01:30;3.32;105.15
34145;HTU21D;69555;53.014;8.886;2023-12-22T07:03:59;3.38;105.38
34145;HTU21D;69555;53.014;8.886;2023-12-22T07:06:29;3.40;105.79
34145;HTU21D;69555;53.014;8.886;2023-12-22T07:11:50;3.57;104.95
34145;HTU21D;69555;53.014;8.886;2023-12-22T07:14:17;3.62;104.81
34145;HTU21D;69555;53.014;8.886;2023-12-22T07:16:44;3.67;104.38
34145;HTU21D;69555;53.014;8.886;2023-12-22T07:19:11;3.64;103.91
34145;HTU21D;69555;53.014;8.886;2023-12-22T07:21:40;3.63;103.79
34145;HTU21D;69555;53.014;8.886;2023-12-22T07:24:07;3.64;103.23
34145;HTU21D;69555;53.014;8.886;2023-12-22T07:26:34;3.75;102.73
34145;HTU21D;69555;53.014;8.886;2023-12-22T07:29:00;3.77;102.54
34145;HTU21D;69555;53.014;8.886;2023-12-22T07:31:27;3.83;102.63
34145;HTU21D;69555;53.014;8.886;2023-12-22T07:33:54;3.90;102.82
34145;HTU21D;69555;53.014;8.886;2023-12-22T07:36:20;3.90;102.57
34145;HTU21D;69555;53.014;8.886;2023-12-22T07:38:47;3.92;102.18
34145;HTU21D;69555;53.014;8.886;2023-12-22T07:41:14;3.93;101.78
34145;HTU21D;69555;53.014;8.886;2023-12-22T07:43:41;4.00;101.22
34145;HTU21D;69555;53.014;8.886;2023-12-22T07:46:08;4.06;101.07
34145;HTU21D;69555;53.014;8.886;2023-12-22T07:48:35;4.05;101.26
34145;HTU21D;69555;53.014;8.886;2023-12-22T07:51:03;4.01;100.85
34145;HTU21D;69555;53.014;8.886;2023-12-22T07:53:30;4.01;101.09
34145;HTU21D;69555;53.014;8.886;2023-12-22T07:55:56;4.00;100.13
34145;HTU21D;69555;53.014;8.886;2023-12-22T07:58:34;3.97;99.92
34145;HTU21D;69555;53.014;8.886;2023-12-22T08:01:01;4.00;99.22
34145;HTU21D;69555;53.014;8.886;2023-12-22T08:03:28;4.02;98.72
34145;HTU21D;69555;53.014;8.886;2023-12-22T08:05:55;4.08;97.65
34145;HTU21D;69555;53.014;8.886;2023-12-22T08:08:22;4.17;98.23
34145;HTU21D;69555;53.014;8.886;2023-12-22T08:10:48;4.20;96.86
34145;HTU21D;69555;53.014;8.886;2023-12-22T08:13:15;4.19;96.41
34145;HTU21D;69555;53.014;8.886;2023-12-22T08:15:44;4.50;93.51
34145;HTU21D;69555;53.014;8.886;2023-12-22T08:18:11;4.73;92.48
34145;HTU21D;69555;53.014;8.886;2023-12-22T08:20:37;4.84;92.33
34145;HTU21D;69555;53.014;8.886;2023-12-22T08:23:04;4.93;92.24
34145;HTU21D;69555;53.014;8.886;2023-12-22T08:25:31;5.05;89.44
34145;HTU21D;69555;53.014;8.886;2023-12-22T08:27:57;5.02;89.73
34145;HTU21D;69555;53.014;8.886;2023-12-22T08:30:24;4.93;90.21
34145;HTU21D;69555;53.014;8.886;2023-12-22T08:32:51;4.96;89.66
34145;HTU21D;69555;53.014;8.886;2023-12-22T08:35:17;5.11;88.32
34145;HTU21D;69555;53.014;8.886;2023-12-22T08:37:44;5.31;88.09
34145;HTU21D;69555;53.014;8.886;2023-12-22T08:40:11;5.41;87.80
34145;HTU21D;69555;53.014;8.886;2023-12-22T08:42:37;5.35;89.27
34145;HTU21D;69555;53.014;8.886;2023-12-22T08:45:05;5.23;91.15
34145;HTU21D;69555;53.014;8.886;2023-12-22T08:47:32;5.06;92.70
34145;HTU21D;69555;53.014;8.886;2023-12-22T08:49:59;4.93;94.23
34145;HTU21D;69555;53.014;8.886;2023-12-22T08:52:26;4.88;94.98
34145;HTU21D;69555;53.014;8.886;2023-12-22T08:54:52;4.52;95.77
34145;HTU21D;69555;53.014;8.886;2023-12-22T08:57:19;4.32;95.50
34145;HTU21D;69555;53.014;8.886;2023-12-22T08:59:45;4.43;95.25
34145;HTU21D;69555;53.014;8.886;2023-12-22T09:02:12;4.48;95.68
34145;HTU21D;69555;53.014;8.886;2023-12-22T09:04:39;4.67;95.01
34145;HTU21D;69555;53.014;8.886;2023-12-22T09:07:05;4.78;94.35
34145;HTU21D;69555;53.014;8.886;2023-12-22T09:09:32;4.77;94.59
34145;HTU21D;69555;53.014;8.886;2023-12-22T09:11:58;4.87;92.80
34145;HTU21D;69555;53.014;8.886;2023-12-22T09:14:25;4.90;92.24
34145;HTU21D;69555;53.014;8.886;2023-12-22T09:16:51;4.90;92.21
34145;HTU21D;69555;53.014;8.886;2023-12-22T09:19:20;4.81;92.01
34145;HTU21D;69555;53.014;8.886;2023-12-22T09:21:46;4.61;93.84
34145;HTU21D;69555;53.014;8.886;2023-12-22T09:24:13;4.08;94.69
34145;HTU21D;69555;53.014;8.886;2023-12-22T09:26:39;3.86;96.44
34145;HTU21D;69555;53.014;8.886;2023-12-22T09:29:06;3.85;97.42
34145;HTU21D;69555;53.014;8.886;2023-12-22T09:31:32;3.91;97.05
34145;HTU21D;69555;53.014;8.886;2023-12-22T09:33:59;3.97;96.96
34145;HTU21D;69555;53.014;8.886;2023-12-22T09:36:26;3.92;97.59
34145;HTU21D;69555;53.014;8.886;2023-12-22T09:38:52;3.93;97.90
34145;HTU21D;69555;53.014;8.886;2023-12-22T09:41:19;3.95;98.42
34145;HTU21D;69555;53.014;8.886;2023-12-22T09:43:48;4.00;97.97
34145;HTU21D;69555;53.014;8.886;2023-12-22T09:46:17;4.00;98.12
34145;HTU21D;69555;53.014;8.886;2023-12-22T09:48:45;4.00;98.78
34145;HTU21D;69555;53.014;8.886;2023-12-22T09:51:13;4.13;98.62
34145;HTU21D;69555;53.014;8.886;2023-12-22T09:53:41;4.20;97.71
34145;HTU21D;69555;53.014;8.886;2023-12-22T09:56:09;4.27;98.08
34145;HTU21D;69555;53.014;8.886;2023-12-22T09:58:36;4.28;98.64
34145;HTU21D;69555;53.014;8.886;2023-12-22T10:01:04;4.39;97.49
34145;HTU21D;69555;53.014;8.886;2023-12-22T10:03:33;4.31;98.08
34145;HTU21D;69555;53.014;8.886;2023-12-22T10:06:00;4.30;97.95
34145;HTU21D;69555;53.014;8.886;2023-12-22T10:08:27;4.31;98.79
34145;HTU21D;69555;53.014;8.886;2023-12-22T10:10:55;4.36;98.71
34145;HTU21D;69555;53.014;8.886;2023-12-22T10:13:22;3.93;100.53
34145;HTU21D;69555;53.014;8.886;2023-12-22T10:15:48;3.92;101.77
34145;HTU21D;69555;53.014;8.886;2023-12-22T10:18:15;3.91;102.71
34145;HTU21D;69555;53.014;8.886;2023-12-22T10:20:42;3.90;102.98
34145;HTU21D;69555;53.014;8.886;2023-12-22T10:23:09;3.90;102.91
34145;HTU21D;69555;53.014;8.886;2023-12-22T10:25:36;3.86;103.52
34145;HTU21D;69555;53.014;8.886;2023-12-22T10:28:02;3.82;104.12
34145;HTU21D;69555;53.014;8.886;2023-12-22T10:30:30;3.75;104.08
34145;HTU21D;69555;53.014;8.886;2023-12-22T10:32:58;3.82;104.05
34145;HTU21D;69555;53.014;8.886;2023-12-22T10:35:25;3.92;103.63
34145;HTU21D;69555;53.014;8.886;2023-12-22T10:37:54;3.86;104.20
34145;HTU21D;69555;53.014;8.886;2023-12-22T10:40:22;3.87;104.48
34145;HTU21D;69555;53.014;8.886;2023-12-22T10:42:49;3.90;104.89
34145;HTU21D;69555;53.014;8.886;2023-12-22T10:45:20;3.98;104.93
34145;HTU21D;69555;53.014;8.886;2023-12-22T10:47:48;3.98;104.52
34145;HTU21D;69555;53.014;8.886;2023-12-22T10:50:19;4.00;105.11
34145;HTU21D;69555;53.014;8.886;2023-12-22T10:52:52;4.10;104.76
34145;HTU21D;69555;53.014;8.886;2023-12-22T10:55:20;4.00;104.86
34145;HTU21D;69555;53.014;8.886;2023-12-22T10:57:47;4.03;105.05
34145;HTU21D;69555;53.014;8.886;2023-12-22T11:00:20;4.07;105.00
34145;HTU21D;69555;53.014;8.886;2023-12-22T11:02:47;4.16;104.66
34145;HTU21D;69555;53.014;8.886;2023-12-22T11:05:18;4.09;105.94
34145;HTU21D;69555;53.014;8.886;2023-12-22T11:07:48;4.31;105.40
34145;HTU21D;69555;53.014;8.886;2023-12-22T11:10:19;4.41;105.38
34145;HTU21D;69555;53.014;8.886;2023-12-22T11:12:47;4.43;105.13
34145;HTU21D;69555;53.014;8.886;2023-12-22T11:15:14;4.46;105.19
34145;HTU21D;69555;53.014;8.886;2023-12-22T11:17:42;4.56;105.53
34145;HTU21D;69555;53.014;8.886;2023-12-22T11:20:10;4.50;106.17
34145;HTU21D;69555;53.014;8.886;2023-12-22T11:22:40;4.66;105.48
34145;HTU21D;69555;53.014;8.886;2023-12-22T11:25:08;4.63;106.19
34145;HTU21D;69555;53.014;8.886;2023-12-22T11:27:37;4.66;106.42
34145;HTU21D;69555;53.014;8.886;2023-12-22T11:30:05;4.60;107.06
34145;HTU21D;69555;53.014;8.886;2023-12-22T11:32:34;4.76;106.25
34145;HTU21D;69555;53.014;8.886;2023-12-22T11:35:03;4.86;106.16
34145;HTU21D;69555;53.014;8.886;2023-12-22T11:37:32;4.83;106.27
34145;HTU21D;69555;53.014;8.886;2023-12-22T11:40:01;4.92;105.80
34145;HTU21D;69555;53.014;8.886;2023-12-22T11:42:36;5.03;105.70
34145;HTU21D;69555;53.014;8.886;2023-12-22T11:45:06;5.15;105.49
34145;HTU21D;69555;53.014;8.886;2023-12-22T11:47:36;5.04;105.39
34145;HTU21D;69555;53.014;8.886;2023-12-22T11:50:08;5.15;105.96
34145;HTU21D;69555;53.014;8.886;2023-12-22T11:52:35;5.13;105.84
34145;HTU21D;69555;53.014;8.886;2023-12-22T11:55:02;5.13;105.69
34145;HTU21D;69555;53.014;8.886;2023-12-22T11:57:38;5.16;105.21
34145;HTU21D;69555;53.014;8.886;2023-12-22T12:02:55;5.23;106.06
34145;HTU21D;69555;53.014;8.886;2023-12-22T12:05:22;5.27;105.35
34145;HTU21D;69555;53.014;8.886;2023-12-22T12:07:49;5.15;106.51
34145;HTU21D;69555;53.014;8.886;2023-12-22T12:13:15;5.17;106.58
34145;HTU21D;69555;53.014;8.886;2023-12-22T12:15:42;5.15;106.47
34145;HTU21D;69555;53.014;8.886;2023-12-22T12:18:08;5.24;106.01
34145;HTU21D;69555;53.014;8.886;2023-12-22T12:20:35;5.28;105.62
34145;HTU21D;69555;53.014;8.886;2023-12-22T12:23:01;5.24;105.54
34145;HTU21D;69555;53.014;8.886;2023-12-22T12:25:29;5.39;104.40
34145;HTU21D;69555;53.014;8.886;2023-12-22T12:30:31;5.38;105.27
34145;HTU21D;69555;53.014;8.886;2023-12-22T12:33:07;5.36;104.93
34145;HTU21D;69555;53.014;8.886;2023-12-22T12:35:34;5.37;104.95
34145;HTU21D;69555;53.014;8.886;2023-12-22T12:38:06;5.50;104.15
34145;HTU21D;69555;53.014;8.886;2023-12-22T12:40:33;5.48;104.38
34145;HTU21D;69555;53.014;8.886;2023-12-22T12:43:02;5.53;103.75
34145;HTU21D;69555;53.014;8.886;2023-12-22T12:45:29;5.56;103.34
34145;HTU21D;69555;53.014;8.886;2023-12-22T12:48:02;5.55;102.92
34145;HTU21D;69555;53.014;8.886;2023-12-22T12:50:30;5.59;102.69
34145;HTU21D;69555;53.014;8.886;2023-12-22T12:52:57;5.66;102.05
34145;HTU21D;69555;53.014;8.886;2023-12-22T12:55:26;5.70;102.02
34145;HTU21D;69555;53.014;8.886;2023-12-22T12:57:56;5.71;101.70
34145;HTU21D;69555;53.014;8.886;2023-12-22T13:00:29;5.75;101.79
34145;HTU21D;69555;53.014;8.886;2023-12-22T13:02:56;5.71;102.08
34145;HTU21D;69555;53.014;8.886;2023-12-22T13:05:23;5.76;101.45
34145;HTU21D;69555;53.014;8.886;2023-12-22T13:07:51;5.79;101.69
34145;HTU21D;69555;53.014;8.886;2023-12-22T13:10:23;5.82;100.93
34145;HTU21D;69555;53.014;8.886;2023-12-22T13:12:51;5.83;100.58
34145;HTU21D;69555;53.014;8.886;2023-12-22T13:15:20;5.81;100.27
34145;HTU21D;69555;53.014;8.886;2023-12-22T13:17:49;5.84;100.18
34145;HTU21D;69555;53.014;8.886;2023-12-22T13:20:17;5.82;100.66
34145;HTU21D;69555;53.014;8.886;2023-12-22T13:22:44;5.86;100.41
34145;HTU21D;69555;53.014;8.886;2023-12-22T13:25:09;5.92;100.62
34145;HTU21D;69555;53.014;8.886;2023-12-22T13:27:50;5.83;101.14
34145;HTU21D;69555;53.014;8.886;2023-12-22T13:30:37;5.81;99.69
34145;HTU21D;69555;53.014;8.886;2023-12-22T13:33:05;5.86;100.13
34145;HTU21D;69555;53.014;8.886;2023-12-22T13:35:33;5.83;100.37
34145;HTU21D;69555;53.014;8.886;2023-12-22T13:38:05;5.82;99.43
34145;HTU21D;69555;53.014;8.886;2023-12-22T13:40:32;5.85;99.35
34145;HTU21D;69555;53.014;8.886;2023-12-22T13:42:59;5.82;100.48
34145;HTU21D;69555;53.014;8.886;2023-12-22T13:45:30;5.92;99.01
34145;HTU21D;69555;53.014;8.886;2023-12-22T13:47:57;5.90;99.00
34145;HTU21D;69555;53.014;8.886;2023-12-22T13:50:24;5.87;99.16
34145;HTU21D;69555;53.014;8.886;2023-12-22T13:52:51;6.01;98.66
34145;HTU21D;69555;53.014;8.886;2023-12-22T13:55:19;5.94;99.39
34145;HTU21D;69555;53.014;8.886;2023-12-22T13:57:48;5.95;99.26
34145;HTU21D;69555;53.014;8.886;2023-12-22T14:02:45;5.86;99.25
34145;HTU21D;69555;53.014;8.886;2023-12-22T14:05:11;5.84;99.71
34145;HTU21D;69555;53.014;8.886;2023-12-22T14:07:37;5.95;99.43
34145;HTU21D;69555;53.014;8.886;2023-12-22T14:10:09;5.93;100.99
34145;HTU21D;69555;53.014;8.886;2023-12-22T14:12:40;5.50;99.26
34145;HTU21D;69555;53.014;8.886;2023-12-22T14:15:19;5.23;100.74
34145;HTU21D;69555;53.014;8.886;2023-12-22T14:17:46;5.25;100.44
34145;HTU21D;69555;53.014;8.886;2023-12-22T14:20:13;5.24;100.93
34145;HTU21D;69555;53.014;8.886;2023-12-22T14:22:39;5.30;99.22
34145;HTU21D;69555;53.014;8.886;2023-12-22T14:25:06;5.31;97.47
34145;HTU21D;69555;53.014;8.886;2023-12-22T14:27:33;5.30;97.71
34145;HTU21D;69555;53.014;8.886;2023-12-22T14:30:00;5.30;97.91
34145;HTU21D;69555;53.014;8.886;2023-12-22T14:32:27;5.32;98.13
34145;HTU21D;69555;53.014;8.886;2023-12-22T14:34:55;5.34;97.88
34145;HTU21D;69555;53.014;8.886;2023-12-22T14:37:22;5.47;98.18
34145;HTU21D;69555;53.014;8.886;2023-12-22T14:39:51;5.52;97.08
34145;HTU21D;69555;53.014;8.886;2023-12-22T14:42:17;5.42;96.78
34145;HTU21D;69555;53.014;8.886;2023-12-22T14:44:44;5.45;94.77
34145;HTU21D;69555;53.014;8.886;2023-12-22T14:47:10;5.38;96.49
34145;HTU21D;69555;53.014;8.886;2023-12-22T14:49:37;5.28;95.19
34145;HTU21D;69555;53.014;8.886;2023-12-22T14:52:04;5.33;96.75
34145;HTU21D;69555;53.014;8.886;2023-12-22T14:54:31;5.26;97.05
34145;HTU21D;69555;53.014;8.886;2023-12-22T14:57:00;5.20;97.21
34145;HTU21D;69555;53.014;8.886;2023-12-22T14:59:28;5.22;98.49
34145;HTU21D;69555;53.014;8.886;2023-12-22T15:01:55;5.19;98.63
34145;HTU21D;69555;53.014;8.886;2023-12-22T15:04:22;5.09;99.10
34145;HTU21D;69555;53.014;8.886;2023-12-22T15:06:49;5.07;99.80
34145;HTU21D;69555;53.014;8.886;2023-12-22T15:09:16;5.03;100.80
34145;HTU21D;69555;53.014;8.886;2023-12-22T15:11:44;4.97;101.66
34145;HTU21D;69555;53.014;8.886;2023-12-22T15:14:12;4.97;101.46
34145;HTU21D;69555;53.014;8.886;2023-12-22T15:16:43;5.00;101.12
34145;HTU21D;69555;53.014;8.886;2023-12-22T15:19:14;5.05;100.64
34145;HTU21D;69555;53.014;8.886;2023-12-22T15:21:41;5.03;101.68
34145;HTU21D;69555;53.014;8.886;2023-12-22T15:24:09;4.97;102.09
34145;HTU21D;69555;53.014;8.886;2023-12-22T15:26:36;5.01;101.71
34145;HTU21D;69555;53.014;8.886;2023-12-22T15:29:03;5.11;101.70
34145;HTU21D;69555;53.014;8.886;2023-12-22T15:31:30;5.06;102.11
34145;HTU21D;69555;53.014;8.886;2023-12-22T15:33:57;5.09;102.16
34145;HTU21D;69555;53.014;8.886;2023-12-22T15:36:24;5.05;102.43
34145;HTU21D;69555;53.014;8.886;2023-12-22T15:38:51;5.00;102.44
34145;HTU21D;69555;53.014;8.886;2023-12-22T15:41:19;5.08;101.89